sensor_id;sensor_type;location;lat;lon;timestamp;temperature;humidity
30250;DHT22;17064;47.974;13.826;2023-11-21T00:01:45;7.70;99.90
30250;DHT22;17064;47.974;13.826;2023-11-21T00:06:47;7.70;99.90
30250;DHT22;17064;47.974;13.826;2023-11-21T00:11:47;7.80;99.90
30250;DHT22;17064;47.974;13.826;2023-11-21T00:16:48;7.80;99.90
30250;DHT22;17064;47.974;13.826;2023-11-21T00:21:48;7.80;99.90
30250;DHT22;17064;47.974;13.826;2023-11-21T00:26:51;7.80;99.90
30250;DHT22;17064;47.974;13.826;2023-11-21T00:31:52;7.80;99.90
30250;DHT22;17064;47.974;13.826;2023-11-21T00:36:52;7.80;99.90
30250;DHT22;17064;47.974;13.826;2023-11-21T00:41:53;7.80;99.90
30250;DHT22;17064;47.974;13.826;2023-11-21T00:46:55;7.80;99.90
30250;DHT22;17064;47.974;13.826;2023-11-21T00:51:56;7.80;99.90
30250;DHT22;17064;47.974;13.826;2023-11-21T00:56:58;7.80;99.90
30250;DHT22;17064;47.974;13.826;2023-11-21T01:01:59;7.80;99.90
30250;DHT22;17064;47.974;13.826;2023-11-21T01:07:01;7.70;99.90
30250;DHT22;17064;47.974;13.826;2023-11-21T01:12:02;7.70;99.90
30250;DHT22;17064;47.974;13.826;2023-11-21T01:17:03;7.60;99.90
30250;DHT22;17064;47.974;13.826;2023-11-21T01:22:05;7.60;99.90
30250;DHT22;17064;47.974;13.826;2023-11-21T01:27:06;7.40;99.90
30250;DHT22;17064;47.974;13.826;2023-11-21T01:32:07;7.20;99.90
30250;DHT22;17064;47.974;13.826;2023-11-21T01:37:08;7.00;99.90
30250;DHT22;17064;47.974;13.826;2023-11-21T01:42:12;6.90;99.90
30250;DHT22;17064;47.974;13.826;2023-11-21T01:47:13;6.70;99.90
30250;DHT22;17064;47.974;13.826;2023-11-21T01:52:14;6.70;99.90
30250;DHT22;17064;47.974;13.826;2023-11-21T01:57:15;6.70;99.90
30250;DHT22;17064;47.974;13.826;2023-11-21T02:02:16;6.70;99.90
30250;DHT22;17064;47.974;13.826;2023-11-21T02:07:17;6.70;99.90
30250;DHT22;17064;47.974;13.826;2023-11-21T02:12:19;6.70;99.90
30250;DHT22;17064;47.974;13.826;2023-11-21T02:17:20;6.60;99.90
30250;DHT22;17064;47.974;13.826;2023-11-21T02:22:21;6.60;99.90
30250;DHT22;17064;47.974;13.826;2023-11-21T02:27:24;6.70;99.90
30250;DHT22;17064;47.974;13.826;2023-11-21T02:32:24;6.90;99.90
30250;DHT22;17064;47.974;13.826;2023-11-21T02:37:26;7.00;99.90
30250;DHT22;17064;47.974;13.826;2023-11-21T02:42:27;7.10;99.90
30250;DHT22;17064;47.974;13.826;2023-11-21T02:47:28;7.20;99.90
30250;DHT22;17064;47.974;13.826;2023-11-21T02:52:29;7.20;99.90
30250;DHT22;17064;47.974;13.826;2023-11-21T02:57:30;7.30;99.90
30250;DHT22;17064;47.974;13.826;2023-11-21T03:02:30;7.30;99.90
30250;DHT22;17064;47.974;13.826;2023-11-21T03:07:31;7.30;99.90
30250;DHT22;17064;47.974;13.826;2023-11-21T03:12:32;7.20;99.90
30250;DHT22;17064;47.974;13.826;2023-11-21T03:17:33;7.20;99.90
30250;DHT22;17064;47.974;13.826;2023-11-21T03:22:36;7.10;99.90
30250;DHT22;17064;47.974;13.826;2023-11-21T03:27:38;7.00;99.90
30250;DHT22;17064;47.974;13.826;2023-11-21T03:32:39;7.00;99.90
30250;DHT22;17064;47.974;13.826;2023-11-21T03:37:40;6.90;99.90
30250;DHT22;17064;47.974;13.826;2023-11-21T03:42:42;6.90;99.90
30250;DHT22;17064;47.974;13.826;2023-11-21T03:47:42;6.80;99.90
30250;DHT22;17064;47.974;13.826;2023-11-21T03:52:43;6.80;99.90
30250;DHT22;17064;47.974;13.826;2023-11-21T03:57:44;6.80;99.90
30250;DHT22;17064;47.974;13.826;2023-11-21T04:02:45;6.70;99.90
30250;DHT22;17064;47.974;13.826;2023-11-21T04:07:46;6.70;99.90
30250;DHT22;17064;47.974;13.826;2023-11-21T04:12:47;6.70;99.90
30250;DHT22;17064;47.974;13.826;2023-11-21T04:17:48;6.80;99.90
30250;DHT22;17064;47.974;13.826;2023-11-21T04:22:49;6.90;99.90
30250;DHT22;17064;47.974;13.826;2023-11-21T04:27:50;7.00;99.90
30250;DHT22;17064;47.974;13.826;2023-11-21T04:32:50;7.00;99.90
30250;DHT22;17064;47.974;13.826;2023-11-21T04:37:51;7.10;99.90
30250;DHT22;17064;47.974;13.826;2023-11-21T04:42:52;7.10;99.90
30250;DHT22;17064;47.974;13.826;2023-11-21T04:47:52;7.10;99.90
30250;DHT22;17064;47.974;13.826;2023-11-21T04:52:53;7.10;99.90
30250;DHT22;17064;47.974;13.826;2023-11-21T04:57:54;7.00;99.90
30250;DHT22;17064;47.974;13.826;2023-11-21T05:02:55;7.00;99.90
30250;DHT22;17064;47.974;13.826;2023-11-21T05:07:55;6.90;99.90
30250;DHT22;17064;47.974;13.826;2023-11-21T05:12:56;6.90;99.90
30250;DHT22;17064;47.974;13.826;2023-11-21T05:17:57;6.90;99.90
30250;DHT22;17064;47.974;13.826;2023-11-21T05:23:00;6.90;99.90
30250;DHT22;17064;47.974;13.826;2023-11-21T05:28:01;6.90;99.90
30250;DHT22;17064;47.974;13.826;2023-11-21T05:33:03;6.90;99.90
30250;DHT22;17064;47.974;13.826;2023-11-21T05:38:03;6.80;99.90
30250;DHT22;17064;47.974;13.826;2023-11-21T05:43:06;6.90;99.90
30250;DHT22;17064;47.974;13.826;2023-11-21T05:48:07;6.90;99.90
30250;DHT22;17064;47.974;13.826;2023-11-21T05:53:07;7.00;99.90
30250;DHT22;17064;47.974;13.826;2023-11-21T05:58:10;7.10;99.90
30250;DHT22;17064;47.974;13.826;2023-11-21T06:03:11;7.20;99.90
30250;DHT22;17064;47.974;13.826;2023-11-21T06:08:12;7.30;99.90
30250;DHT22;17064;47.974;13.826;2023-11-21T06:13:13;7.30;99.90
30250;DHT22;17064;47.974;13.826;2023-11-21T06:18:14;7.30;99.90
30250;DHT22;17064;47.974;13.826;2023-11-21T06:23:15;7.20;99.90
30250;DHT22;17064;47.974;13.826;2023-11-21T06:28:16;7.10;99.90
30250;DHT22;17064;47.974;13.826;2023-11-21T06:33:18;7.00;99.90
30250;DHT22;17064;47.974;13.826;2023-11-21T06:38:19;7.00;99.90
30250;DHT22;17064;47.974;13.826;2023-11-21T06:43:20;6.90;99.90
30250;DHT22;17064;47.974;13.826;2023-11-21T06:48:22;6.90;99.90
30250;DHT22;17064;47.974;13.826;2023-11-21T06:53:23;6.90;99.90
30250;DHT22;17064;47.974;13.826;2023-11-21T06:58:25;6.90;99.90
30250;DHT22;17064;47.974;13.826;2023-11-21T07:03:25;6.80;99.90
30250;DHT22;17064;47.974;13.826;2023-11-21T07:08:26;6.70;99.90
30250;DHT22;17064;47.974;13.826;2023-11-21T07:13:27;6.70;99.90
30250;DHT22;17064;47.974;13.826;2023-11-21T07:18:27;6.70;99.90
30250;DHT22;17064;47.974;13.826;2023-11-21T07:23:28;6.70;99.90
30250;DHT22;17064;47.974;13.826;2023-11-21T07:28:29;6.70;99.90
30250;DHT22;17064;47.974;13.826;2023-11-21T07:33:30;6.70;99.90
30250;DHT22;17064;47.974;13.826;2023-11-21T07:38:31;6.70;99.90
30250;DHT22;17064;47.974;13.826;2023-11-21T07:43:37;6.80;99.90
30250;DHT22;17064;47.974;13.826;2023-11-21T07:48:39;6.80;99.90
30250;DHT22;17064;47.974;13.826;2023-11-21T07:53:39;6.80;99.90
30250;DHT22;17064;47.974;13.826;2023-11-21T07:58:40;6.80;99.90
30250;DHT22;17064;47.974;13.826;2023-11-21T08:03:41;6.90;99.90
30250;DHT22;17064;47.974;13.826;2023-11-21T08:08:41;6.90;99.90
30250;DHT22;17064;47.974;13.826;2023-11-21T08:13:43;7.00;99.90
30250;DHT22;17064;47.974;13.826;2023-11-21T08:18:44;7.00;99.90
30250;DHT22;17064;47.974;13.826;2023-11-21T08:23:44;7.00;99.90
30250;DHT22;17064;47.974;13.826;2023-11-21T08:28:45;7.00;99.90
30250;DHT22;17064;47.974;13.826;2023-11-21T08:33:47;7.10;99.90
30250;DHT22;17064;47.974;13.826;2023-11-21T08:38:48;7.10;99.90
30250;DHT22;17064;47.974;13.826;2023-11-21T08:43:52;7.20;99.90
30250;DHT22;17064;47.974;13.826;2023-11-21T08:48:54;7.30;99.90
30250;DHT22;17064;47.974;13.826;2023-11-21T08:53:55;7.40;99.90
30250;DHT22;17064;47.974;13.826;2023-11-21T08:58:59;7.50;99.90
30250;DHT22;17064;47.974;13.826;2023-11-21T09:04:03;7.60;99.90
30250;DHT22;17064;47.974;13.826;2023-11-21T09:09:03;7.60;99.90
30250;DHT22;17064;47.974;13.826;2023-11-21T09:14:06;7.60;99.90
30250;DHT22;17064;47.974;13.826;2023-11-21T09:19:06;7.70;99.90
30250;DHT22;17064;47.974;13.826;2023-11-21T09:24:07;7.60;99.90
30250;DHT22;17064;47.974;13.826;2023-11-21T09:29:09;7.60;99.90
30250;DHT22;17064;47.974;13.826;2023-11-21T09:34:10;7.60;99.90
30250;DHT22;17064;47.974;13.826;2023-11-21T09:39:12;7.60;99.90
30250;DHT22;17064;47.974;13.826;2023-11-21T09:44:18;7.60;99.90
30250;DHT22;17064;47.974;13.826;2023-11-21T09:49:22;7.60;99.90
30250;DHT22;17064;47.974;13.826;2023-11-21T09:54:25;7.50;99.90
30250;DHT22;17064;47.974;13.826;2023-11-21T09:59:30;7.50;99.90
30250;DHT22;17064;47.974;13.826;2023-11-21T10:04:34;7.60;99.90
30250;DHT22;17064;47.974;13.826;2023-11-21T10:09:36;7.70;99.90
30250;DHT22;17064;47.974;13.826;2023-11-21T10:14:41;7.80;99.90
30250;DHT22;17064;47.974;13.826;2023-11-21T10:19:42;7.90;99.90
30250;DHT22;17064;47.974;13.826;2023-11-21T10:24:43;8.00;99.90
30250;DHT22;17064;47.974;13.826;2023-11-21T10:29:44;8.20;99.90
30250;DHT22;17064;47.974;13.826;2023-11-21T10:34:55;8.30;99.90
30250;DHT22;17064;47.974;13.826;2023-11-21T10:39:59;8.40;99.90
30250;DHT22;17064;47.974;13.826;2023-11-21T10:45:00;8.40;99.90
30250;DHT22;17064;47.974;13.826;2023-11-21T10:50:01;8.40;99.90
30250;DHT22;17064;47.974;13.826;2023-11-21T10:55:21;8.40;99.90
30250;DHT22;17064;47.974;13.826;2023-11-21T11:00:24;8.40;99.90
30250;DHT22;17064;47.974;13.826;2023-11-21T11:05:27;8.40;99.90
30250;DHT22;17064;47.974;13.826;2023-11-21T11:10:29;8.40;99.90
30250;DHT22;17064;47.974;13.826;2023-11-21T11:15:30;8.50;99.90
30250;DHT22;17064;47.974;13.826;2023-11-21T11:20:36;8.50;99.90
30250;DHT22;17064;47.974;13.826;2023-11-21T11:30:50;8.60;99.90
30250;DHT22;17064;47.974;13.826;2023-11-21T11:36:10;8.50;99.90
30250;DHT22;17064;47.974;13.826;2023-11-21T11:41:11;8.50;99.90
30250;DHT22;17064;47.974;13.826;2023-11-21T11:46:12;8.60;99.90
30250;DHT22;17064;47.974;13.826;2023-11-21T11:51:14;8.60;99.90
30250;DHT22;17064;47.974;13.826;2023-11-21T12:01:21;8.50;99.90
30250;DHT22;17064;47.974;13.826;2023-11-21T12:06:33;8.50;99.90
30250;DHT22;17064;47.974;13.826;2023-11-21T12:11:36;8.50;99.90
30250;DHT22;17064;47.974;13.826;2023-11-21T12:16:37;8.40;99.90
30250;DHT22;17064;47.974;13.826;2023-11-21T12:21:38;8.40;99.90
30250;DHT22;17064;47.974;13.826;2023-11-21T12:26:42;8.20;99.90
30250;DHT22;17064;47.974;13.826;2023-11-21T12:31:43;8.20;99.90
30250;DHT22;17064;47.974;13.826;2023-11-21T12:36:46;8.10;99.90
30250;DHT22;17064;47.974;13.826;2023-11-21T12:41:47;8.00;99.90
30250;DHT22;17064;47.974;13.826;2023-11-21T12:46:48;7.90;99.90
30250;DHT22;17064;47.974;13.826;2023-11-21T12:51:48;7.90;99.90
30250;DHT22;17064;47.974;13.826;2023-11-21T12:56:49;8.00;99.90
30250;DHT22;17064;47.974;13.826;2023-11-21T13:01:50;8.10;99.90
30250;DHT22;17064;47.974;13.826;2023-11-21T13:06:51;8.10;99.90
30250;DHT22;17064;47.974;13.826;2023-11-21T13:12:00;8.10;99.90
30250;DHT22;17064;47.974;13.826;2023-11-21T13:17:04;8.00;99.90
30250;DHT22;17064;47.974;13.826;2023-11-21T13:22:04;7.90;99.90
30250;DHT22;17064;47.974;13.826;2023-11-21T13:27:05;7.80;99.90
30250;DHT22;17064;47.974;13.826;2023-11-21T13:32:07;7.80;99.90
30250;DHT22;17064;47.974;13.826;2023-11-21T13:37:12;7.80;99.90
30250;DHT22;17064;47.974;13.826;2023-11-21T13:42:13;7.80;99.90
30250;DHT22;17064;47.974;13.826;2023-11-21T13:47:14;7.70;99.90
30250;DHT22;17064;47.974;13.826;2023-11-21T13:52:15;7.70;99.90
30250;DHT22;17064;47.974;13.826;2023-11-21T13:57:18;7.70;99.90
30250;DHT22;17064;47.974;13.826;2023-11-21T14:02:19;7.60;99.90
30250;DHT22;17064;47.974;13.826;2023-11-21T14:07:23;7.60;99.90
30250;DHT22;17064;47.974;13.826;2023-11-21T14:12:35;7.70;99.90
30250;DHT22;17064;47.974;13.826;2023-11-21T14:17:38;7.70;99.90
30250;DHT22;17064;47.974;13.826;2023-11-21T14:22:41;7.70;99.90
30250;DHT22;17064;47.974;13.826;2023-11-21T14:27:42;7.70;99.90
30250;DHT22;17064;47.974;13.826;2023-11-21T14:32:43;7.70;99.90
30250;DHT22;17064;47.974;13.826;2023-11-21T14:37:43;7.60;99.90
30250;DHT22;17064;47.974;13.826;2023-11-21T14:42:44;7.60;99.90
30250;DHT22;17064;47.974;13.826;2023-11-21T14:47:48;7.60;99.90
30250;DHT22;17064;47.974;13.826;2023-11-21T14:52:59;7.50;99.90
30250;DHT22;17064;47.974;13.826;2023-11-21T14:57:59;7.50;99.90
30250;DHT22;17064;47.974;13.826;2023-11-21T15:03:04;7.40;99.90
30250;DHT22;17064;47.974;13.826;2023-11-21T15:08:05;7.40;99.90
30250;DHT22;17064;47.974;13.826;2023-11-21T15:13:20;7.40;99.90
30250;DHT22;17064;47.974;13.826;2023-11-21T15:18:23;7.30;99.90
30250;DHT22;17064;47.974;13.826;2023-11-21T15:23:25;7.30;99.90
30250;DHT22;17064;47.974;13.826;2023-11-21T15:28:25;7.30;99.90
30250;DHT22;17064;47.974;13.826;2023-11-21T15:33:26;7.30;99.90
30250;DHT22;17064;47.974;13.826;2023-11-21T15:38:28;7.30;99.90
30250;DHT22;17064;47.974;13.826;2023-11-21T15:43:29;7.30;99.90
30250;DHT22;17064;47.974;13.826;2023-11-21T15:48:30;7.20;99.90
30250;DHT22;17064;47.974;13.826;2023-11-21T15:53:31;7.20;99.90
30250;DHT22;17064;47.974;13.826;2023-11-21T15:58:32;7.10;99.90
30250;DHT22;17064;47.974;13.826;2023-11-21T16:03:34;7.10;99.90
30250;DHT22;17064;47.974;13.826;2023-11-21T16:08:36;7.10;99.90
30250;DHT22;17064;47.974;13.826;2023-11-21T16:13:36;7.10;99.90
30250;DHT22;17064;47.974;13.826;2023-11-21T16:18:39;7.10;99.90
30250;DHT22;17064;47.974;13.826;2023-11-21T16:23:39;7.00;99.90
30250;DHT22;17064;47.974;13.826;2023-11-21T16:28:40;7.00;99.90
30250;DHT22;17064;47.974;13.826;2023-11-21T16:33:42;7.00;99.90
30250;DHT22;17064;47.974;13.826;2023-11-21T16:38:42;7.00;99.90
30250;DHT22;17064;47.974;13.826;2023-11-21T16:43:43;7.00;99.90
30250;DHT22;17064;47.974;13.826;2023-11-21T16:48:44;6.90;99.90
30250;DHT22;17064;47.974;13.826;2023-11-21T16:53:45;6.90;99.90
30250;DHT22;17064;47.974;13.826;2023-11-21T16:58:45;6.90;99.90
30250;DHT22;17064;47.974;13.826;2023-11-21T17:03:46;6.90;99.90
30250;DHT22;17064;47.974;13.826;2023-11-21T17:08:49;6.90;99.90
30250;DHT22;17064;47.974;13.826;2023-11-21T17:13:49;6.80;99.90
30250;DHT22;17064;47.974;13.826;2023-11-21T17:18:51;6.80;99.90
30250;DHT22;17064;47.974;13.826;2023-11-21T17:23:52;6.80;99.90
30250;DHT22;17064;47.974;13.826;2023-11-21T17:28:53;6.70;99.90
30250;DHT22;17064;47.974;13.826;2023-11-21T17:33:54;6.70;99.90
30250;DHT22;17064;47.974;13.826;2023-11-21T17:38:55;6.70;99.90
30250;DHT22;17064;47.974;13.826;2023-11-21T17:43:57;6.70;99.90
30250;DHT22;17064;47.974;13.826;2023-11-21T17:48:58;6.70;99.90
30250;DHT22;17064;47.974;13.826;2023-11-21T17:53:59;6.60;99.90
30250;DHT22;17064;47.974;13.826;2023-11-21T17:59:02;6.60;99.90
30250;DHT22;17064;47.974;13.826;2023-11-21T18:04:03;6.60;99.90
30250;DHT22;17064;47.974;13.826;2023-11-21T18:09:05;6.50;99.90
30250;DHT22;17064;47.974;13.826;2023-11-21T18:14:09;6.50;99.90
30250;DHT22;17064;47.974;13.826;2023-11-21T18:19:10;6.50;99.90
30250;DHT22;17064;47.974;13.826;2023-11-21T18:24:11;6.50;99.90
30250;DHT22;17064;47.974;13.826;2023-11-21T18:29:12;6.50;99.90
30250;DHT22;17064;47.974;13.826;2023-11-21T18:34:17;6.50;99.90
30250;DHT22;17064;47.974;13.826;2023-11-21T18:39:18;6.50;99.90
30250;DHT22;17064;47.974;13.826;2023-11-21T18:44:19;6.40;99.90
30250;DHT22;17064;47.974;13.826;2023-11-21T18:49:20;6.40;99.90
30250;DHT22;17064;47.974;13.826;2023-11-21T18:54:20;6.30;99.90
30250;DHT22;17064;47.974;13.826;2023-11-21T18:59:21;6.40;99.90
30250;DHT22;17064;47.974;13.826;2023-11-21T19:04:22;6.40;99.90
30250;DHT22;17064;47.974;13.826;2023-11-21T19:09:25;6.30;99.90
30250;DHT22;17064;47.974;13.826;2023-11-21T19:14:26;6.40;99.90
30250;DHT22;17064;47.974;13.826;2023-11-21T19:19:26;6.30;99.90
30250;DHT22;17064;47.974;13.826;2023-11-21T19:24:28;6.30;99.90
30250;DHT22;17064;47.974;13.826;2023-11-21T19:29:29;6.30;99.90
30250;DHT22;17064;47.974;13.826;2023-11-21T19:34:29;6.20;99.90
30250;DHT22;17064;47.974;13.826;2023-11-21T19:39:31;6.20;99.90
30250;DHT22;17064;47.974;13.826;2023-11-21T19:44:32;6.20;99.90
30250;DHT22;17064;47.974;13.826;2023-11-21T19:49:36;6.20;99.90
30250;DHT22;17064;47.974;13.826;2023-11-21T19:54:38;6.20;99.90
30250;DHT22;17064;47.974;13.826;2023-11-21T19:59:39;6.10;99.90
30250;DHT22;17064;47.974;13.826;2023-11-21T20:04:43;6.20;99.90
30250;DHT22;17064;47.974;13.826;2023-11-21T20:09:45;6.20;99.90
30250;DHT22;17064;47.974;13.826;2023-11-21T20:14:46;6.20;99.90
30250;DHT22;17064;47.974;13.826;2023-11-21T20:19:49;6.20;99.90
30250;DHT22;17064;47.974;13.826;2023-11-21T20:24:50;6.20;99.90
30250;DHT22;17064;47.974;13.826;2023-11-21T20:29:50;6.30;99.90
30250;DHT22;17064;47.974;13.826;2023-11-21T20:34:51;6.20;99.90
30250;DHT22;17064;47.974;13.826;2023-11-21T20:39:53;6.30;99.90
30250;DHT22;17064;47.974;13.826;2023-11-21T20:44:55;6.20;99.90
30250;DHT22;17064;47.974;13.826;2023-11-21T20:49:56;6.30;99.90
30250;DHT22;17064;47.974;13.826;2023-11-21T20:54:59;6.20;99.90
30250;DHT22;17064;47.974;13.826;2023-11-21T21:00:00;6.20;99.90
30250;DHT22;17064;47.974;13.826;2023-11-21T21:05:00;6.20;99.90
30250;DHT22;17064;47.974;13.826;2023-11-21T21:10:01;6.20;99.90
30250;DHT22;17064;47.974;13.826;2023-11-21T21:15:02;6.20;99.90
30250;DHT22;17064;47.974;13.826;2023-11-21T21:20:03;6.10;99.90
30250;DHT22;17064;47.974;13.826;2023-11-21T21:25:06;6.10;99.90
30250;DHT22;17064;47.974;13.826;2023-11-21T21:30:07;6.10;99.90
30250;DHT22;17064;47.974;13.826;2023-11-21T21:35:09;6.10;99.90
30250;DHT22;17064;47.974;13.826;2023-11-21T21:40:12;6.10;99.90
30250;DHT22;17064;47.974;13.826;2023-11-21T21:45:13;6.10;99.90
30250;DHT22;17064;47.974;13.826;2023-11-21T21:50:15;6.10;99.90
30250;DHT22;17064;47.974;13.826;2023-11-21T21:55:17;6.00;99.90
30250;DHT22;17064;47.974;13.826;2023-11-21T22:00:17;6.00;99.90
30250;DHT22;17064;47.974;13.826;2023-11-21T22:05:18;6.00;99.90
30250;DHT22;17064;47.974;13.826;2023-11-21T22:10:19;6.00;99.90
30250;DHT22;17064;47.974;13.826;2023-11-21T22:15:20;6.10;99.90
30250;DHT22;17064;47.974;13.826;2023-11-21T22:20:21;6.10;99.90
30250;DHT22;17064;47.974;13.826;2023-11-21T22:25:22;6.10;99.90
30250;DHT22;17064;47.974;13.826;2023-11-21T22:30:23;6.10;99.90
30250;DHT22;17064;47.974;13.826;2023-11-21T22:35:27;6.10;99.90
30250;DHT22;17064;47.974;13.826;2023-11-21T22:40:32;6.20;99.90
30250;DHT22;17064;47.974;13.826;2023-11-21T22:45:32;6.20;99.90
30250;DHT22;17064;47.974;13.826;2023-11-21T22:50:33;6.20;99.90
30250;DHT22;17064;47.974;13.826;2023-11-21T22:55:34;6.20;99.90
30250;DHT22;17064;47.974;13.826;2023-11-21T23:00:34;6.20;99.90
30250;DHT22;17064;47.974;13.826;2023-11-21T23:05:37;6.20;99.90
30250;DHT22;17064;47.974;13.826;2023-11-21T23:10:37;6.20;99.90
30250;DHT22;17064;47.974;13.826;2023-11-21T23:15:39;6.20;99.90
30250;DHT22;17064;47.974;13.826;2023-11-21T23:20:42;6.20;99.90
30250;DHT22;17064;47.974;13.826;2023-11-21T23:25:43;6.20;99.90
30250;DHT22;17064;47.974;13.826;2023-11-21T23:30:44;6.20;99.90
30250;DHT22;17064;47.974;13.826;2023-11-21T23:35:45;6.20;99.90
30250;DHT22;17064;47.974;13.826;2023-11-21T23:40:46;6.10;99.90
30250;DHT22;17064;47.974;13.826;2023-11-21T23:45:47;6.10;99.90
30250;DHT22;17064;47.974;13.826;2023-11-21T23:50:48;6.10;99.90
30250;DHT22;17064;47.974;13.826;2023-11-21T23:55:48;6.10;99.90
